createdAt,value
2018-02-02T00:00:21.894Z,76.61
2018-02-02T00:02:59.823Z,77.31
2018-02-02T00:05:31.423Z,77.60
2018-02-02T00:08:07.141Z,76.65
2018-02-02T00:10:45.098Z,76.68
2018-02-02T00:13:18.596Z,77.34
2018-02-02T00:15:56.569Z,77.54
2018-02-02T00:18:24.166Z,78.08
2018-02-02T00:20:59.931Z,78.03
2018-02-02T00:23:41.049Z,78.14
2018-02-02T00:26:18.467Z,78.12
2018-02-02T00:28:47.575Z,78.36
2018-02-02T00:31:20.046Z,78.73
2018-02-02T00:33:49.254Z,78.31
2018-02-02T00:36:27.750Z,78.36
2018-02-02T00:38:56.505Z,78.74
2018-02-02T00:41:26.971Z,78.79
2018-02-02T00:44:05.004Z,78.85
2018-02-02T00:46:47.759Z,78.27
2018-02-02T00:49:22.241Z,78.12
2018-02-02T00:51:57.356Z,78.18
2018-02-02T00:54:36.452Z,78.31
2018-02-02T00:57:04.143Z,78.36
2018-02-02T00:59:31.702Z,78.48
2018-02-02T01:01:59.357Z,78.27
2018-02-02T01:04:26.939Z,78.47
2018-02-02T01:06:54.675Z,78.94
2018-02-02T01:09:22.335Z,79.10
2018-02-02T01:12:04.822Z,79.62
2018-02-02T01:14:42.549Z,80.79
2018-02-02T01:17:21.603Z,80.61
2018-02-02T01:19:52.221Z,79.16
2018-02-02T01:22:19.974Z,79.08
2018-02-02T01:24:57.753Z,79.40
2018-02-02T01:27:36.566Z,79.46
2018-02-02T01:30:11.099Z,80.14
2018-02-02T01:32:39.711Z,79.74
2018-02-02T01:35:14.575Z,79.45
2018-02-02T01:37:42.266Z,79.36
2018-02-02T01:40:16.993Z,80.32
2018-02-02T01:42:47.593Z,80.49
2018-02-02T01:45:19.241Z,81.09
2018-02-02T01:47:47.402Z,80.41
2018-02-02T01:50:15.035Z,80.95
2018-02-02T01:52:55.326Z,81.70
2018-02-02T01:55:37.723Z,81.67
2018-02-02T01:58:06.328Z,81.52
2018-02-02T02:00:34.803Z,81.37
2018-02-02T02:03:14.193Z,80.94
2018-02-02T02:06:00.230Z,80.63
2018-02-02T02:08:27.890Z,80.54
2018-02-02T02:10:55.604Z,80.48
2018-02-02T02:13:23.334Z,80.79
2018-02-02T02:15:54.571Z,80.69
2018-02-02T02:18:23.297Z,80.53
2018-02-02T02:20:51.078Z,80.63
2018-02-02T02:23:19.201Z,80.67
2018-02-02T02:25:54.152Z,80.44
2018-02-02T02:28:39.494Z,80.43
2018-02-02T02:31:14.125Z,80.68
2018-02-02T02:33:42.707Z,80.92
2018-02-02T02:36:10.302Z,81.22
2018-02-02T02:38:38.743Z,81.27
2018-02-02T02:41:06.346Z,80.81
2018-02-02T02:43:33.957Z,80.71
2018-02-02T02:46:01.490Z,81.09
2018-02-02T02:48:32.552Z,80.84
2018-02-02T02:51:03.156Z,81.09
2018-02-02T02:53:31.575Z,80.87
2018-02-02T02:55:59.110Z,80.91
2018-02-02T02:58:27.766Z,80.96
2018-02-02T03:00:55.342Z,81.07
2018-02-02T03:03:23.016Z,81.64
2018-02-02T03:05:51.641Z,81.98
2018-02-02T03:08:19.638Z,81.32
2018-02-02T03:10:47.582Z,80.78
2018-02-02T03:13:15.138Z,80.93
2018-02-02T03:15:43.711Z,80.54
2018-02-02T03:18:12.409Z,80.35
2018-02-02T03:20:49.893Z,81.01
2018-02-02T03:23:21.498Z,80.85
2018-02-02T03:25:49.923Z,80.61
2018-02-02T03:28:17.542Z,80.22
2018-02-02T03:30:46.293Z,79.94
2018-02-02T03:33:13.987Z,79.26
2018-02-02T03:35:57.467Z,79.07
2018-02-02T03:38:28.734Z,78.83
2018-02-02T03:40:57.881Z,78.66
2018-02-02T03:43:28.739Z,78.53
2018-02-02T03:45:56.575Z,78.25
2018-02-02T03:48:24.343Z,78.07
2018-02-02T03:51:13.954Z,77.89
2018-02-02T03:53:47.347Z,77.83
2018-02-02T03:56:36.913Z,77.80
2018-02-02T03:59:14.621Z,78.12
2018-02-02T04:01:49.358Z,77.70
2018-02-02T04:04:19.931Z,77.79
2018-02-02T04:06:47.505Z,77.09
2018-02-02T04:09:15.074Z,75.67
2018-02-02T04:11:44.259Z,72.18
2018-02-02T04:14:15.607Z,68.73
2018-02-02T04:16:43.338Z,69.52
2018-02-02T04:19:11.091Z,70.35
2018-02-02T04:21:39.055Z,71.25
2018-02-02T04:24:07.571Z,72.21
2018-02-02T04:26:35.978Z,72.28
2018-02-02T04:29:04.691Z,73.35
2018-02-02T04:31:33.048Z,74.19
2018-02-02T04:34:00.938Z,74.23
2018-02-02T04:36:35.601Z,74.71
2018-02-02T04:39:03.162Z,74.66
2018-02-02T04:41:30.762Z,74.94
2018-02-02T04:43:59.142Z,74.89
2018-02-02T04:46:26.680Z,74.82
2018-02-02T04:48:58.115Z,74.64
2018-02-02T04:51:25.654Z,74.46
2018-02-02T04:54:08.207Z,74.28
2018-02-02T04:56:39.540Z,73.01
2018-02-02T04:59:08.032Z,72.54
2018-02-02T05:01:36.933Z,71.75
2018-02-02T05:04:05.410Z,71.31
2018-02-02T05:06:34.103Z,71.02
2018-02-02T05:09:01.779Z,70.94
2018-02-02T05:11:29.818Z,70.86
2018-02-02T05:13:58.748Z,70.65
2018-02-02T05:16:26.373Z,70.57
2018-02-02T05:18:57.246Z,70.04
2018-02-02T05:21:24.979Z,69.80
2018-02-02T05:23:53.470Z,69.95
2018-02-02T05:26:21.418Z,70.24
2018-02-02T05:28:50.112Z,70.73
2018-02-02T05:31:18.703Z,71.03
2018-02-02T05:33:56.490Z,71.43
2018-02-02T05:36:24.408Z,71.48
2018-02-02T05:38:52.122Z,71.57
2018-02-02T05:41:19.770Z,71.92
2018-02-02T05:43:48.344Z,72.21
2018-02-02T05:46:17.075Z,72.59
2018-02-02T05:48:44.935Z,72.40
2018-02-02T05:51:14.087Z,72.23
2018-02-02T05:53:47.763Z,72.39
2018-02-02T05:56:18.244Z,71.40
2018-02-02T05:58:53.941Z,71.33
2018-02-02T06:01:25.490Z,71.75
2018-02-02T06:04:01.207Z,71.70
2018-02-02T06:06:29.221Z,71.72
2018-02-02T06:08:57.638Z,71.98
2018-02-02T06:11:25.234Z,72.19
2018-02-02T06:13:52.900Z,72.02
2018-02-02T06:16:20.506Z,71.34
2018-02-02T06:18:49.894Z,71.36
2018-02-02T06:21:17.538Z,71.43
2018-02-02T06:23:45.558Z,71.19
2018-02-02T06:26:13.295Z,71.84
2018-02-02T06:28:40.911Z,72.04
2018-02-02T06:31:08.508Z,72.06
2018-02-02T06:33:39.493Z,72.28
2018-02-02T06:36:08.103Z,72.05
2018-02-02T06:38:38.565Z,72.45
2018-02-02T06:41:09.304Z,71.99
2018-02-02T06:43:38.282Z,71.53
2018-02-02T06:46:06.246Z,71.43
2018-02-02T06:48:34.274Z,71.60
2018-02-02T06:51:02.251Z,70.99
2018-02-02T06:53:33.907Z,70.90
2018-02-02T06:56:14.615Z,71.00
2018-02-02T06:58:51.999Z,71.28
2018-02-02T07:01:20.679Z,71.52
2018-02-02T07:03:59.730Z,71.76
2018-02-02T07:06:38.914Z,72.15
2018-02-02T07:09:07.454Z,72.37
2018-02-02T07:11:37.949Z,72.02
2018-02-02T07:16:35.942Z,71.30
2018-02-02T07:19:03.537Z,71.12
2018-02-02T07:21:31.102Z,70.31
2018-02-02T07:23:59.546Z,70.42
2018-02-02T07:26:27.460Z,69.50
2018-02-02T07:28:56.054Z,67.85
2018-02-02T07:31:23.599Z,66.03
2018-02-02T07:33:54.571Z,64.33
2018-02-02T07:36:26.361Z,63.02
2018-02-02T07:38:54.654Z,62.42
2018-02-02T07:41:29.104Z,62.06
2018-02-02T07:43:57.115Z,60.42
2018-02-02T07:46:24.662Z,60.71
2018-02-02T07:48:52.231Z,60.94
2018-02-02T07:51:20.658Z,60.30
2018-02-02T07:53:49.652Z,60.10
2018-02-02T07:56:18.206Z,59.86
2018-02-02T07:58:55.650Z,59.01
2018-02-02T08:01:26.266Z,59.34
2018-02-02T08:03:53.946Z,59.39
2018-02-02T08:06:21.543Z,58.89
2018-02-02T08:09:02.207Z,58.29
2018-02-02T08:11:33.050Z,58.04
2018-02-02T08:14:00.633Z,56.91
2018-02-02T08:16:32.027Z,56.83
2018-02-02T08:18:59.823Z,55.51
2018-02-02T08:21:28.187Z,55.44
2018-02-02T08:23:58.579Z,55.20
2018-02-02T08:26:26.230Z,54.63
2018-02-02T08:28:53.790Z,54.47
2018-02-02T08:31:24.127Z,55.59
2018-02-02T08:33:52.559Z,55.85
2018-02-02T08:36:23.125Z,55.96
2018-02-02T08:38:51.123Z,56.24
2018-02-02T08:41:18.994Z,55.79
2018-02-02T08:43:46.619Z,55.77
2018-02-02T08:46:14.401Z,55.29
2018-02-02T08:48:42.879Z,54.85
2018-02-02T08:51:10.554Z,55.01
2018-02-02T08:53:39.182Z,54.66
2018-02-02T08:56:07.102Z,54.01
2018-02-02T08:58:34.702Z,54.51
2018-02-02T09:01:10.875Z,52.65
2018-02-02T09:03:38.410Z,50.81
2018-02-02T09:06:06.761Z,50.51
2018-02-02T09:08:35.369Z,48.20
2018-02-02T09:11:03.310Z,47.43
2018-02-02T09:13:30.904Z,46.81
2018-02-02T09:15:58.505Z,45.53
2018-02-02T09:18:27.366Z,46.63
2018-02-02T09:20:55.832Z,44.91
2018-02-02T09:23:25.701Z,45.07
2018-02-02T09:25:54.889Z,44.12
2018-02-02T09:28:23.898Z,42.87
2018-02-02T09:30:51.598Z,42.81
2018-02-02T09:33:19.321Z,41.85
2018-02-02T09:35:47.642Z,42.10
2018-02-02T09:38:15.387Z,41.73
2018-02-02T09:40:43.067Z,42.08
2018-02-02T09:43:10.674Z,41.49
2018-02-02T09:45:38.486Z,40.80
2018-02-02T09:48:06.036Z,40.27
2018-02-02T09:50:34.354Z,40.48
2018-02-02T09:53:01.898Z,39.47
2018-02-02T09:55:30.330Z,39.77
2018-02-02T09:57:58.730Z,38.75
2018-02-02T10:00:26.263Z,38.27
2018-02-02T10:02:53.854Z,38.50
2018-02-02T10:05:21.901Z,38.58
2018-02-02T10:07:49.495Z,38.20
2018-02-02T10:10:18.187Z,38.11
2018-02-02T10:12:45.731Z,38.09
2018-02-02T10:15:13.367Z,38.26
2018-02-02T10:17:41.046Z,37.77
2018-02-02T10:20:08.664Z,37.62
2018-02-02T10:22:46.594Z,37.39
2018-02-02T10:25:14.363Z,36.31
2018-02-02T10:27:42.386Z,36.46
2018-02-02T10:30:10.017Z,36.65
2018-02-02T10:32:37.855Z,37.32
2018-02-02T10:35:05.532Z,37.73
2018-02-02T10:37:33.378Z,37.80
2018-02-02T10:40:01.423Z,38.05
2018-02-02T10:42:32.144Z,38.01
2018-02-02T10:45:00.684Z,37.54
2018-02-02T10:47:28.411Z,38.19
2018-02-02T10:49:57.735Z,38.06
2018-02-02T10:52:28.248Z,37.62
2018-02-02T10:54:56.678Z,37.63
2018-02-02T10:57:24.678Z,36.76
2018-02-02T10:59:52.282Z,36.67
2018-02-02T11:05:24.362Z,35.46
2018-02-02T11:07:51.894Z,35.01
2018-02-02T11:10:19.443Z,34.80
2018-02-02T11:12:47.844Z,34.97
2018-02-02T11:15:17.427Z,34.58
2018-02-02T11:17:45.698Z,34.65
2018-02-02T11:20:13.264Z,34.53
2018-02-02T11:22:41.205Z,34.75
2018-02-02T11:25:08.993Z,35.13
2018-02-02T11:27:38.042Z,35.26
2018-02-02T11:30:05.596Z,35.93
2018-02-02T11:32:33.513Z,35.69
2018-02-02T11:35:02.924Z,36.47
2018-02-02T11:37:30.528Z,36.35
2018-02-02T11:39:58.438Z,36.36
2018-02-02T11:42:26.286Z,36.26
2018-02-02T11:44:54.695Z,35.90
2018-02-02T11:47:23.070Z,36.77
2018-02-02T11:49:51.502Z,36.81
2018-02-02T11:52:20.035Z,36.58
2018-02-02T11:54:48.104Z,37.04
2018-02-02T11:57:16.074Z,37.00
2018-02-02T11:59:49.490Z,37.24
2018-02-02T12:02:18.161Z,37.36
2018-02-02T12:04:45.759Z,37.32
2018-02-02T12:07:13.423Z,37.47
2018-02-02T12:09:41.116Z,37.74
2018-02-02T12:12:08.651Z,38.37
2018-02-02T12:14:36.338Z,38.35
2018-02-02T12:17:03.974Z,38.79
2018-02-02T12:19:31.627Z,39.32
2018-02-02T12:25:14.625Z,40.68
2018-02-02T12:31:04.363Z,40.77
2018-02-02T12:33:39.242Z,41.08
2018-02-02T12:36:28.906Z,41.51
2018-02-02T12:38:58.197Z,41.89
2018-02-02T12:41:26.839Z,41.87
2018-02-02T12:43:54.442Z,42.90
2018-02-02T12:46:25.726Z,41.81
2018-02-02T12:48:58.550Z,42.30
2018-02-02T12:51:34.898Z,41.78
2018-02-02T12:54:02.544Z,42.15
2018-02-02T12:56:37.857Z,42.17
2018-02-02T12:59:07.442Z,42.14
2018-02-02T13:01:35.318Z,42.19
2018-02-02T13:04:03.047Z,42.22
2018-02-02T13:06:33.634Z,42.54
2018-02-02T13:09:01.314Z,42.41
2018-02-02T13:11:39.158Z,42.79
2018-02-02T13:14:07.374Z,43.25
2018-02-02T13:16:36.446Z,43.24
2018-02-02T13:19:12.403Z,43.32
2018-02-02T13:24:39.106Z,44.00
2018-02-02T13:27:09.602Z,44.22
2018-02-02T13:29:40.533Z,44.30
2018-02-02T13:32:11.555Z,44.53
2018-02-02T13:34:40.064Z,44.76
2018-02-02T13:37:10.535Z,44.82
2018-02-02T13:39:39.144Z,45.24
2018-02-02T13:42:09.834Z,45.31
2018-02-02T13:44:48.602Z,45.65
2018-02-02T13:47:17.402Z,46.10
2018-02-02T13:49:56.410Z,46.87
2018-02-02T13:52:24.039Z,46.52
2018-02-02T13:54:51.757Z,46.81
2018-02-02T13:57:19.559Z,47.13
2018-02-02T13:59:50.352Z,46.80
2018-02-02T14:02:21.251Z,46.84
2018-02-02T14:04:48.902Z,47.32
2018-02-02T14:07:17.246Z,47.75
2018-02-02T14:09:45.627Z,48.04
2018-02-02T14:12:16.391Z,47.83
2018-02-02T14:14:50.966Z,47.73
2018-02-02T14:17:21.549Z,47.74
2018-02-02T14:19:50.192Z,47.85
2018-02-02T14:22:17.770Z,48.07
2018-02-02T14:24:52.286Z,48.71
2018-02-02T14:27:20.242Z,48.85
2018-02-02T14:29:48.101Z,48.49
2018-02-02T14:32:16.794Z,48.62
2018-02-02T14:34:44.378Z,48.65
2018-02-02T14:37:11.933Z,48.69
2018-02-02T14:39:39.659Z,48.64
2018-02-02T14:42:07.264Z,48.71
2018-02-02T14:44:35.058Z,48.93
2018-02-02T14:47:02.597Z,48.94
2018-02-02T14:49:30.144Z,48.55
2018-02-02T14:51:57.747Z,48.82
2018-02-02T14:54:26.231Z,49.39
2018-02-02T14:56:54.012Z,49.38
2018-02-02T14:59:24.758Z,49.90
2018-02-02T15:01:52.343Z,50.15
2018-02-02T15:04:20.126Z,50.33
2018-02-02T15:06:47.718Z,51.07
2018-02-02T15:09:15.782Z,50.97
2018-02-02T15:11:43.322Z,51.33
2018-02-02T15:14:10.986Z,51.54
2018-02-02T15:16:38.958Z,51.66
2018-02-02T15:19:06.601Z,52.19
2018-02-02T15:21:34.431Z,52.46
2018-02-02T15:24:02.074Z,52.55
2018-02-02T15:26:30.574Z,52.78
2018-02-02T15:28:58.236Z,53.07
2018-02-02T15:31:25.988Z,52.21
2018-02-02T15:33:53.723Z,52.28
2018-02-02T15:36:21.511Z,52.16
2018-02-02T15:38:49.198Z,51.96
2018-02-02T15:41:16.867Z,52.27
2018-02-02T15:43:44.606Z,52.21
2018-02-02T15:46:12.263Z,52.04
2018-02-02T15:48:39.991Z,52.44
2018-02-02T15:51:07.653Z,52.95
2018-02-02T15:53:35.308Z,52.84
2018-02-02T15:56:02.866Z,53.05
2018-02-02T15:58:31.309Z,53.20
2018-02-02T16:00:58.934Z,53.10
2018-02-02T16:03:26.535Z,52.95
2018-02-02T16:05:54.217Z,52.68
2018-02-02T16:08:21.843Z,52.36
2018-02-02T16:10:49.390Z,51.68
2018-02-02T16:13:17.579Z,51.46
2018-02-02T16:15:46.171Z,51.71
2018-02-02T16:18:13.779Z,51.44
2018-02-02T16:20:41.318Z,51.46
2018-02-02T16:23:08.935Z,51.27
2018-02-02T16:25:36.480Z,51.06
2018-02-02T16:28:04.082Z,50.96
2018-02-02T16:30:31.690Z,51.12
2018-02-02T16:32:59.522Z,51.03
2018-02-02T16:35:29.863Z,51.33
2018-02-02T16:37:57.446Z,51.19
2018-02-02T16:40:25.138Z,51.29
2018-02-02T16:42:52.743Z,50.97
2018-02-02T16:45:20.391Z,51.19
2018-02-02T16:47:48.075Z,51.02
2018-02-02T16:50:15.750Z,51.14
2018-02-02T16:52:43.420Z,51.17
2018-02-02T16:55:11.529Z,51.39
2018-02-02T16:57:39.178Z,51.24
2018-02-02T17:00:07.082Z,51.64
2018-02-02T17:02:34.771Z,51.12
2018-02-02T17:05:05.228Z,51.32
2018-02-02T17:07:32.874Z,51.35
2018-02-02T17:10:00.532Z,51.31
2018-02-02T17:12:28.130Z,51.07
2018-02-02T17:14:55.666Z,51.25
2018-02-02T17:17:24.099Z,51.02
2018-02-02T17:19:51.731Z,50.74
2018-02-02T17:22:19.343Z,50.74
2018-02-02T17:24:53.754Z,50.67
2018-02-02T17:27:21.478Z,50.76
2018-02-02T17:29:49.054Z,50.81
2018-02-02T17:32:17.647Z,50.92
2018-02-02T17:34:45.202Z,51.01
2018-02-02T17:37:12.898Z,51.36
2018-02-02T17:39:40.451Z,51.36
2018-02-02T17:42:08.171Z,51.46
2018-02-02T17:44:35.876Z,51.74
2018-02-02T17:47:03.447Z,51.96
2018-02-02T17:49:32.454Z,52.33
2018-02-02T17:52:00.295Z,52.64
2018-02-02T17:54:28.319Z,52.79
2018-02-02T17:56:56.266Z,53.18
2018-02-02T17:59:23.891Z,53.50
2018-02-02T18:01:57.242Z,53.25
2018-02-02T18:04:25.139Z,53.56
2018-02-02T18:06:52.916Z,53.81
2018-02-02T18:09:20.662Z,53.83
2018-02-02T18:11:48.242Z,54.08
2018-02-02T18:14:16.682Z,54.05
2018-02-02T18:16:45.222Z,54.34
2018-02-02T18:19:13.839Z,54.73
2018-02-02T18:21:44.195Z,54.22
2018-02-02T18:24:11.834Z,54.43
2018-02-02T18:26:40.202Z,54.60
2018-02-02T18:29:08.041Z,54.50
2018-02-02T18:31:35.695Z,54.74
2018-02-02T18:34:03.474Z,54.70
2018-02-02T18:36:31.095Z,54.77
2018-02-02T18:38:58.730Z,55.03
2018-02-02T18:41:26.379Z,55.23
2018-02-02T18:43:53.962Z,55.58
2018-02-02T18:46:21.767Z,55.35
2018-02-02T18:48:49.485Z,55.79
2018-02-02T18:51:17.271Z,55.45
2018-02-02T18:53:45.218Z,56.20
2018-02-02T18:56:13.017Z,55.86
2018-02-02T18:58:40.730Z,55.75
2018-02-02T19:01:08.277Z,55.54
2018-02-02T19:03:36.983Z,55.39
2018-02-02T19:06:04.618Z,54.76
2018-02-02T19:08:32.331Z,54.47
2018-02-02T19:11:00.731Z,54.50
2018-02-02T19:13:28.311Z,54.54
2018-02-02T19:15:56.478Z,54.47
2018-02-02T19:18:24.982Z,54.34
2018-02-02T19:20:54.038Z,54.58
2018-02-02T19:23:22.487Z,54.60
2018-02-02T19:25:50.283Z,54.32
2018-02-02T19:28:17.897Z,54.29
2018-02-02T19:30:45.587Z,54.11
2018-02-02T19:33:13.182Z,54.15
2018-02-02T19:35:40.740Z,54.26
2018-02-02T19:38:09.556Z,54.34
2018-02-02T19:40:38.855Z,54.45
2018-02-02T19:43:06.420Z,54.61
2018-02-02T19:45:34.162Z,54.62
2018-02-02T19:48:01.798Z,54.67
2018-02-02T19:50:29.351Z,55.41
2018-02-02T19:52:57.845Z,55.73
2018-02-02T19:55:26.487Z,56.28
2018-02-02T19:57:55.962Z,56.59
2018-02-02T20:00:23.562Z,56.59
2018-02-02T20:03:06.543Z,57.05
2018-02-02T20:05:37.198Z,56.41
2018-02-02T20:08:05.786Z,56.84
2018-02-02T20:10:48.212Z,56.96
2018-02-02T20:13:27.111Z,55.82
2018-02-02T20:15:55.541Z,55.48
2018-02-02T20:18:26.271Z,54.93
2018-02-02T20:20:54.478Z,54.30
2018-02-02T20:23:22.319Z,53.14
2018-02-02T20:25:50.836Z,52.70
2018-02-02T20:31:04.570Z,51.26
2018-02-02T20:33:39.341Z,51.17
2018-02-02T20:36:07.058Z,50.78
2018-02-02T20:38:35.790Z,50.87
2018-02-02T20:41:03.518Z,50.79
2018-02-02T20:43:38.114Z,51.47
2018-02-02T20:46:08.437Z,51.64
2018-02-02T20:48:36.806Z,51.92
2018-02-02T20:51:05.177Z,52.66
2018-02-02T20:53:32.806Z,53.22
2018-02-02T20:56:00.538Z,53.71
2018-02-02T20:58:38.079Z,54.19
2018-02-02T21:01:06.562Z,54.53
2018-02-02T21:03:34.184Z,54.80
2018-02-02T21:06:15.099Z,54.85
2018-02-02T21:08:53.670Z,55.40
2018-02-02T21:11:29.307Z,55.71
2018-02-02T21:13:56.908Z,55.59
2018-02-02T21:16:24.548Z,55.58
2018-02-02T21:18:55.008Z,55.56
2018-02-02T21:21:25.354Z,55.72
2018-02-02T21:23:54.242Z,56.71
2018-02-02T21:26:22.886Z,56.84
2018-02-02T21:28:56.292Z,57.40
2018-02-02T21:31:23.856Z,57.93
2018-02-02T21:33:52.375Z,57.86
2018-02-02T21:36:22.910Z,58.11
2018-02-02T21:38:51.355Z,58.58
2018-02-02T21:41:19.021Z,59.45
2018-02-02T21:43:47.290Z,59.50
2018-02-02T21:46:21.830Z,59.65
2018-02-02T21:48:52.448Z,59.96
2018-02-02T21:51:21.146Z,60.42
2018-02-02T21:53:49.767Z,60.41
2018-02-02T21:56:27.722Z,60.90
2018-02-02T21:58:58.294Z,61.32
2018-02-02T22:01:26.682Z,60.82
2018-02-02T22:03:54.230Z,60.99
2018-02-02T22:06:31.986Z,61.39
2018-02-02T22:09:00.386Z,61.19
2018-02-02T22:11:31.407Z,61.65
2018-02-02T22:14:10.532Z,61.44
2018-02-02T22:16:38.127Z,61.28
2018-02-02T22:19:05.698Z,61.47
2018-02-02T22:21:36.206Z,61.52
2018-02-02T22:24:07.264Z,61.74
2018-02-02T22:26:38.735Z,61.94
2018-02-02T22:29:07.282Z,62.03
2018-02-02T22:31:37.683Z,62.76
2018-02-02T22:34:10.831Z,63.03
2018-02-02T22:36:39.366Z,63.33
2018-02-02T22:39:10.154Z,63.49
2018-02-02T22:41:49.567Z,63.87
2018-02-02T22:44:21.192Z,64.21
2018-02-02T22:46:48.875Z,64.46
2018-02-02T22:49:17.902Z,64.97
2018-02-02T22:51:48.379Z,65.55
2018-02-02T22:54:29.814Z,65.74
2018-02-02T22:57:01.227Z,66.14
2018-02-02T22:59:29.547Z,65.60
2018-02-02T23:01:57.249Z,65.40
2018-02-02T23:04:27.859Z,65.20
2018-02-02T23:07:05.540Z,65.36
2018-02-02T23:09:41.278Z,65.27
2018-02-02T23:12:16.936Z,65.51
2018-02-02T23:15:01.635Z,65.45
2018-02-02T23:17:44.366Z,65.62
2018-02-02T23:20:17.698Z,65.61
2018-02-02T23:22:45.275Z,65.32
2018-02-02T23:25:23.115Z,65.24
2018-02-02T23:28:00.918Z,65.29
2018-02-02T23:30:30.518Z,65.46
2018-02-02T23:33:05.943Z,65.57
2018-02-02T23:35:33.766Z,65.48
2018-02-02T23:38:04.420Z,65.49
2018-02-02T23:40:32.086Z,66.17
2018-02-02T23:43:13.313Z,66.62
2018-02-02T23:45:51.059Z,67.02
2018-02-02T23:48:25.483Z,67.71
2018-02-02T23:50:53.158Z,68.18
2018-02-02T23:53:20.766Z,68.47
2018-02-02T23:56:03.252Z,68.60
2018-02-02T23:58:30.913Z,68.39
